createdAt,value
2023-04-16T00:00:48.492Z,4.65
2023-04-16T00:03:16.210Z,3.90
2023-04-16T00:05:43.167Z,4.90
2023-04-16T00:08:09.869Z,5.00
2023-04-16T00:10:36.756Z,4.45
2023-04-16T00:13:03.554Z,5.45
2023-04-16T00:15:30.324Z,5.75
2023-04-16T00:17:57.017Z,6.40
2023-04-16T00:20:23.694Z,8.20
2023-04-16T00:22:51.360Z,9.75
2023-04-16T00:25:18.132Z,6.47
2023-04-16T00:27:44.809Z,7.18
2023-04-16T00:30:12.101Z,8.13
2023-04-16T00:32:38.892Z,7.43
2023-04-16T00:35:06.253Z,7.55
2023-04-16T00:37:32.912Z,8.73
2023-04-16T00:39:59.605Z,6.30
2023-04-16T00:42:26.295Z,8.32
2023-04-16T00:44:52.974Z,6.68
2023-04-16T00:47:20.367Z,6.22
2023-04-16T00:49:47.238Z,7.55
2023-04-16T00:52:13.883Z,7.43
2023-04-16T00:54:40.902Z,7.65
2023-04-16T00:57:07.574Z,8.45
2023-04-16T00:59:34.277Z,6.65
2023-04-16T01:02:01.041Z,7.30
2023-04-16T01:04:29.372Z,7.93
2023-04-16T01:06:56.198Z,7.03
2023-04-16T01:09:22.881Z,7.65
2023-04-16T01:11:50.096Z,6.30
2023-04-16T01:14:16.800Z,8.13
2023-04-16T01:16:43.401Z,5.82
2023-04-16T01:19:10.334Z,6.35
2023-04-16T01:21:37.382Z,8.73
2023-04-16T01:24:04.721Z,8.15
2023-04-16T01:26:31.706Z,6.25
2023-04-16T01:28:59.183Z,6.70
2023-04-16T01:31:26.096Z,6.75
2023-04-16T01:33:52.754Z,5.63
2023-04-16T01:36:19.439Z,6.15
2023-04-16T01:38:46.401Z,8.90
2023-04-16T01:41:13.118Z,6.70
2023-04-16T01:43:40.425Z,5.78
2023-04-16T01:46:26.929Z,6.93
2023-04-16T01:48:55.270Z,6.90
2023-04-16T01:51:22.126Z,7.40
2023-04-16T01:53:50.022Z,7.47
2023-04-16T01:56:17.117Z,7.45
2023-04-16T01:58:43.802Z,9.63
2023-04-16T02:01:10.600Z,7.15
2023-04-16T02:03:37.634Z,6.15
2023-04-16T02:06:04.403Z,8.23
2023-04-16T02:08:31.224Z,6.25
2023-04-16T02:10:57.915Z,6.68
2023-04-16T02:13:26.097Z,7.40
2023-04-16T02:15:52.922Z,7.28
2023-04-16T02:18:19.603Z,8.27
2023-04-16T02:20:46.800Z,7.40
2023-04-16T02:23:14.996Z,8.00
2023-04-16T02:25:42.371Z,7.53
2023-04-16T02:28:09.503Z,7.90
2023-04-16T02:30:36.863Z,6.85
2023-04-16T02:33:05.565Z,6.03
2023-04-16T02:35:32.513Z,7.80
2023-04-16T02:37:59.438Z,7.03
2023-04-16T02:40:26.683Z,6.07
2023-04-16T02:42:53.962Z,8.30
2023-04-16T02:45:21.256Z,6.75
2023-04-16T02:47:48.822Z,7.10
2023-04-16T02:50:16.082Z,7.25
2023-04-16T02:52:42.704Z,7.15
2023-04-16T02:55:10.361Z,5.93
2023-04-16T02:57:37.441Z,6.85
2023-04-16T03:00:05.046Z,7.35
2023-04-16T03:02:31.965Z,9.15
2023-04-16T03:04:58.703Z,7.50
2023-04-16T03:07:25.858Z,7.13
2023-04-16T03:09:52.506Z,7.32
2023-04-16T03:12:19.226Z,7.95
2023-04-16T03:14:46.016Z,6.50
2023-04-16T03:17:12.696Z,8.20
2023-04-16T03:19:39.432Z,5.75
2023-04-16T03:22:06.177Z,9.50
2023-04-16T03:24:32.885Z,6.80
2023-04-16T03:26:59.612Z,5.30
2023-04-16T03:29:27.204Z,8.90
2023-04-16T03:31:53.910Z,4.38
2023-04-16T03:34:20.744Z,5.80
2023-04-16T03:36:47.406Z,5.25
2023-04-16T03:39:14.278Z,5.47
2023-04-16T03:41:41.178Z,5.28
2023-04-16T03:44:07.830Z,7.85
2023-04-16T03:46:34.600Z,4.55
2023-04-16T03:49:01.511Z,4.72
2023-04-16T03:51:28.108Z,4.60
2023-04-16T03:53:54.919Z,6.13
2023-04-16T03:56:21.626Z,4.47
2023-04-16T03:58:48.304Z,5.63
2023-04-16T04:01:15.282Z,5.22
2023-04-16T04:03:42.332Z,4.57
2023-04-16T04:06:09.412Z,8.70
2023-04-16T04:08:36.579Z,6.60
2023-04-16T04:11:03.369Z,7.40
2023-04-16T04:13:30.304Z,6.53
2023-04-16T04:15:57.053Z,4.78
2023-04-16T04:18:23.775Z,5.75
2023-04-16T04:20:51.522Z,7.03
2023-04-16T04:23:18.411Z,5.15
2023-04-16T04:25:45.290Z,4.53
2023-04-16T04:28:12.131Z,5.35
2023-04-16T04:30:38.879Z,6.53
2023-04-16T04:33:05.708Z,4.65
2023-04-16T04:35:32.737Z,5.65
2023-04-16T04:37:59.416Z,6.25
2023-04-16T04:40:26.262Z,9.65
2023-04-16T04:42:52.960Z,6.45
2023-04-16T04:45:19.639Z,5.75
2023-04-16T04:47:46.389Z,6.22
2023-04-16T04:50:13.076Z,7.05
2023-04-16T04:52:39.736Z,5.78
2023-04-16T04:55:06.624Z,6.05
2023-04-16T04:57:33.449Z,5.18
2023-04-16T05:00:00.182Z,6.85
2023-04-16T05:02:26.978Z,6.57
2023-04-16T05:04:53.717Z,4.93
2023-04-16T05:07:21.740Z,5.53
2023-04-16T05:09:48.433Z,4.50
2023-04-16T05:12:15.165Z,5.80
2023-04-16T05:14:41.870Z,5.57
2023-04-16T05:17:08.721Z,4.70
2023-04-16T05:19:36.357Z,5.47
2023-04-16T05:22:03.295Z,5.30
2023-04-16T05:24:30.157Z,5.28
2023-04-16T05:26:57.304Z,5.10
2023-04-16T05:29:24.221Z,6.68
2023-04-16T05:31:50.942Z,4.50
2023-04-16T05:34:17.633Z,4.93
2023-04-16T05:36:44.357Z,4.65
2023-04-16T05:39:11.306Z,4.38
2023-04-16T05:41:38.253Z,4.05
2023-04-16T05:44:05.200Z,5.10
2023-04-16T05:46:36.218Z,3.42
2023-04-16T05:49:02.963Z,4.35
2023-04-16T05:51:29.542Z,4.50
2023-04-16T05:53:56.417Z,2.92
2023-04-16T05:56:23.407Z,4.03
2023-04-16T05:58:50.093Z,3.08
2023-04-16T06:01:17.050Z,4.05
2023-04-16T06:03:44.336Z,3.15
2023-04-16T06:06:11.683Z,2.30
2023-04-16T06:08:38.684Z,2.53
2023-04-16T06:11:05.449Z,2.90
2023-04-16T06:13:32.441Z,3.15
2023-04-16T06:15:59.120Z,2.78
2023-04-16T06:18:26.354Z,2.83
2023-04-16T06:20:53.191Z,2.05
2023-04-16T06:23:19.919Z,1.67
2023-04-16T06:25:46.655Z,1.90
2023-04-16T06:28:13.531Z,1.92
2023-04-16T06:30:40.674Z,1.67
2023-04-16T06:33:08.155Z,1.73
2023-04-16T06:35:34.766Z,2.50
2023-04-16T06:38:01.449Z,1.30
2023-04-16T06:40:28.049Z,2.63
2023-04-16T06:42:55.894Z,1.65
2023-04-16T06:45:22.597Z,0.98
2023-04-16T06:47:49.748Z,3.35
2023-04-16T06:50:16.630Z,2.65
2023-04-16T06:52:43.357Z,0.70
2023-04-16T06:55:11.475Z,0.98
2023-04-16T06:57:38.250Z,1.45
2023-04-16T07:00:05.783Z,0.60
2023-04-16T07:02:32.653Z,0.90
2023-04-16T07:05:00.031Z,0.55
2023-04-16T07:07:29.744Z,0.60
2023-04-16T07:09:56.526Z,0.55
2023-04-16T07:12:23.232Z,0.60
2023-04-16T07:14:49.937Z,0.63
2023-04-16T07:17:16.645Z,0.70
2023-04-16T07:19:43.405Z,0.47
2023-04-16T07:22:10.061Z,0.70
2023-04-16T07:24:48.801Z,1.42
2023-04-16T07:27:15.417Z,0.65
2023-04-16T07:29:42.106Z,0.60
2023-04-16T07:32:08.952Z,0.65
2023-04-16T07:34:35.748Z,0.80
2023-04-16T07:37:02.503Z,1.08
2023-04-16T07:39:29.197Z,0.57
2023-04-16T07:41:55.884Z,0.50
2023-04-16T07:44:22.584Z,0.40
2023-04-16T07:46:49.405Z,0.80
2023-04-16T07:49:27.977Z,0.50
2023-04-16T07:51:54.747Z,0.73
2023-04-16T07:54:21.415Z,0.80
2023-04-16T07:56:48.083Z,0.60
2023-04-16T07:59:23.039Z,0.75
2023-04-16T08:01:52.184Z,1.38
2023-04-16T08:04:24.457Z,1.67
2023-04-16T08:09:21.612Z,0.50
2023-04-16T08:11:49.762Z,0.63
2023-04-16T08:14:17.143Z,0.60
2023-04-16T08:16:43.860Z,0.60
2023-04-16T08:19:10.874Z,1.35
2023-04-16T08:21:37.911Z,0.43
2023-04-16T08:24:04.707Z,0.85
2023-04-16T08:26:31.600Z,0.68
2023-04-16T08:29:10.872Z,0.75
2023-04-16T08:31:37.970Z,0.30
2023-04-16T08:34:04.705Z,1.15
2023-04-16T08:36:31.505Z,0.47
2023-04-16T08:38:58.220Z,0.63
2023-04-16T08:41:25.980Z,0.40
2023-04-16T08:43:57.147Z,0.80
2023-04-16T08:46:24.985Z,0.77
2023-04-16T08:48:51.754Z,0.43
2023-04-16T08:51:18.562Z,0.30
2023-04-16T08:56:25.992Z,3.22
2023-04-16T08:58:52.948Z,1.85
2023-04-16T09:01:19.718Z,0.70
2023-04-16T09:03:48.115Z,0.77
2023-04-16T09:06:16.428Z,1.48
2023-04-16T09:08:45.500Z,0.40
2023-04-16T09:11:17.311Z,0.98
2023-04-16T09:13:44.878Z,0.33
2023-04-16T09:16:11.665Z,0.50
2023-04-16T09:18:38.535Z,0.30
2023-04-16T09:21:05.281Z,0.50
2023-04-16T09:23:31.968Z,0.30
2023-04-16T09:25:59.335Z,0.50
2023-04-16T09:28:46.450Z,0.40
2023-04-16T09:31:17.555Z,1.48
2023-04-16T09:33:45.032Z,0.65
2023-04-16T09:36:11.768Z,0.30
2023-04-16T09:38:54.960Z,0.40
2023-04-16T09:41:27.093Z,0.68
2023-04-16T09:44:02.013Z,0.60
2023-04-16T09:46:33.938Z,0.32
2023-04-16T09:49:14.833Z,0.40
2023-04-16T09:51:41.936Z,0.50
2023-04-16T09:54:08.891Z,0.20
2023-04-16T09:56:45.125Z,0.68
2023-04-16T09:59:19.797Z,0.50
2023-04-16T10:01:47.264Z,0.50
2023-04-16T10:04:14.014Z,0.68
2023-04-16T10:06:41.014Z,1.00
2023-04-16T10:09:09.055Z,2.00
2023-04-16T10:11:36.319Z,0.28
2023-04-16T10:14:03.211Z,0.63
2023-04-16T10:16:30.830Z,0.57
2023-04-16T10:18:57.590Z,0.32
2023-04-16T10:21:24.319Z,0.10
2023-04-16T10:23:51.360Z,0.35
2023-04-16T10:26:18.210Z,0.55
2023-04-16T10:28:45.552Z,0.77
2023-04-16T10:31:12.283Z,1.55
2023-04-16T10:33:40.765Z,0.60
2023-04-16T10:36:12.677Z,0.40
2023-04-16T10:38:41.179Z,0.82
2023-04-16T10:41:09.009Z,1.77
2023-04-16T10:43:41.330Z,0.73
2023-04-16T10:46:43.618Z,0.65
2023-04-16T10:49:19.284Z,0.38
2023-04-16T10:52:07.524Z,0.43
2023-04-16T10:54:35.687Z,2.15
2023-04-16T10:57:04.852Z,4.43
2023-04-16T10:59:33.661Z,2.80
2023-04-16T11:02:02.162Z,3.40
2023-04-16T11:04:31.014Z,1.67
2023-04-16T11:07:17.072Z,1.92
2023-04-16T11:09:52.682Z,1.88
2023-04-16T11:12:22.281Z,2.28
2023-04-16T11:14:54.327Z,2.20
2023-04-16T11:17:21.600Z,2.00
2023-04-16T11:19:48.393Z,2.28
2023-04-16T11:22:17.190Z,1.85
2023-04-16T11:24:45.255Z,1.77
2023-04-16T11:27:14.337Z,1.90
2023-04-16T11:29:41.564Z,1.70
2023-04-16T11:32:08.558Z,1.80
2023-04-16T11:34:35.500Z,1.88
2023-04-16T11:37:02.276Z,1.85
2023-04-16T11:39:28.956Z,1.75
2023-04-16T11:41:56.046Z,1.60
2023-04-16T11:44:25.384Z,1.70
2023-04-16T11:46:52.691Z,1.73
2023-04-16T11:49:34.517Z,2.17
2023-04-16T11:52:02.699Z,1.75
2023-04-16T11:54:34.774Z,1.60
2023-04-16T11:57:04.275Z,2.17
2023-04-16T11:59:31.076Z,1.73
2023-04-16T12:01:57.805Z,3.83
2023-04-16T12:04:26.108Z,2.03
2023-04-16T12:07:15.698Z,2.10
2023-04-16T12:09:43.591Z,2.60
2023-04-16T12:12:28.086Z,2.15
2023-04-16T12:14:56.774Z,2.20
2023-04-16T12:17:23.706Z,1.83
2023-04-16T12:19:58.548Z,2.35
2023-04-16T12:25:07.519Z,2.22
2023-04-16T12:27:43.414Z,3.88
2023-04-16T12:30:10.617Z,2.10
2023-04-16T12:32:37.611Z,2.60
2023-04-16T12:35:05.152Z,2.75
2023-04-16T12:37:32.585Z,2.70
2023-04-16T12:39:59.373Z,2.97
2023-04-16T12:42:26.205Z,3.15
2023-04-16T12:44:52.997Z,2.88
2023-04-16T12:47:19.661Z,2.90
2023-04-16T12:49:46.432Z,3.00
2023-04-16T12:52:13.635Z,3.55
2023-04-16T12:54:41.256Z,3.55
2023-04-16T12:57:08.097Z,4.25
2023-04-16T12:59:34.754Z,3.30
2023-04-16T13:02:02.813Z,3.90
2023-04-16T13:04:29.757Z,4.10
2023-04-16T13:06:56.581Z,5.65
2023-04-16T13:09:23.280Z,4.53
2023-04-16T13:11:50.085Z,5.13
2023-04-16T13:14:17.120Z,4.93
2023-04-16T13:16:43.860Z,5.45
2023-04-16T13:19:10.815Z,5.93
2023-04-16T13:21:39.024Z,5.03
2023-04-16T13:24:06.091Z,2.80
2023-04-16T13:26:32.752Z,3.63
2023-04-16T13:28:59.474Z,4.50
2023-04-16T13:31:26.610Z,3.35
2023-04-16T13:33:53.406Z,4.03
2023-04-16T13:36:20.197Z,4.10
2023-04-16T13:38:46.943Z,3.90
2023-04-16T13:41:13.618Z,3.60
2023-04-16T13:43:40.538Z,5.30
2023-04-16T13:46:07.404Z,6.07
2023-04-16T13:48:34.262Z,6.05
2023-04-16T13:51:00.999Z,5.57
2023-04-16T13:53:27.827Z,5.25
2023-04-16T13:55:54.672Z,5.45
2023-04-16T13:58:21.325Z,5.25
2023-04-16T14:00:47.986Z,4.30
2023-04-16T14:03:14.822Z,5.13
2023-04-16T14:05:41.642Z,3.88
2023-04-16T14:08:08.725Z,4.00
2023-04-16T14:10:35.377Z,4.28
2023-04-16T14:13:02.110Z,3.60
2023-04-16T14:15:29.954Z,3.50
2023-04-16T14:17:56.923Z,3.33
2023-04-16T14:20:23.780Z,3.25
2023-04-16T14:22:50.742Z,3.30
2023-04-16T14:25:17.522Z,3.45
2023-04-16T14:27:44.330Z,3.20
2023-04-16T14:30:11.239Z,3.03
2023-04-16T14:32:38.082Z,3.17
2023-04-16T14:35:05.390Z,3.25
2023-04-16T14:37:32.133Z,3.40
2023-04-16T14:39:58.939Z,3.20
2023-04-16T14:42:26.256Z,4.97
2023-04-16T14:44:53.028Z,4.03
2023-04-16T14:47:19.771Z,4.00
2023-04-16T14:49:46.401Z,5.20
2023-04-16T14:52:13.380Z,4.50
2023-04-16T14:54:40.092Z,4.75
2023-04-16T14:57:06.939Z,4.93
2023-04-16T14:59:33.635Z,5.22
2023-04-16T15:02:00.344Z,5.40
2023-04-16T15:04:27.443Z,5.18
2023-04-16T15:06:55.637Z,5.90
2023-04-16T15:09:22.597Z,6.55
2023-04-16T15:11:49.322Z,5.97
2023-04-16T15:14:16.692Z,6.70
2023-04-16T15:16:43.421Z,5.40
2023-04-16T15:19:10.550Z,2.15
2023-04-16T15:21:38.650Z,3.00
2023-04-16T15:24:05.803Z,2.28
2023-04-16T15:26:32.522Z,3.70
2023-04-16T15:28:59.196Z,4.28
2023-04-16T15:31:26.124Z,2.45
2023-04-16T15:33:53.573Z,2.00
2023-04-16T15:36:20.793Z,2.50
2023-04-16T15:38:47.540Z,2.40
2023-04-16T15:41:14.142Z,2.00
2023-04-16T15:43:40.925Z,4.15
2023-04-16T15:46:08.776Z,2.47
2023-04-16T15:48:35.754Z,2.50
2023-04-16T15:51:03.167Z,1.80
2023-04-16T15:53:29.855Z,1.90
2023-04-16T15:55:56.546Z,7.57
2023-04-16T15:58:23.249Z,4.90
2023-04-16T16:00:50.775Z,3.25
2023-04-16T16:03:18.553Z,3.08
2023-04-16T16:05:47.856Z,3.25
2023-04-16T16:08:15.528Z,4.72
2023-04-16T16:10:42.469Z,6.20
2023-04-16T16:13:13.005Z,7.70
2023-04-16T16:15:45.915Z,6.03
2023-04-16T16:18:12.704Z,5.78
2023-04-16T16:20:40.435Z,7.30
2023-04-16T16:23:07.442Z,5.25
2023-04-16T16:25:34.207Z,6.32
2023-04-16T16:28:02.514Z,4.50
2023-04-16T16:30:30.706Z,4.03
2023-04-16T16:32:57.910Z,2.08
2023-04-16T16:35:26.081Z,4.60
2023-04-16T16:37:55.709Z,4.68
2023-04-16T16:40:22.919Z,3.35
2023-04-16T16:42:49.728Z,5.50
2023-04-16T16:45:16.827Z,6.95
2023-04-16T16:47:43.855Z,3.25
2023-04-16T16:50:11.978Z,5.18
2023-04-16T16:52:39.013Z,3.25
2023-04-16T16:55:08.582Z,2.97
2023-04-16T16:57:35.465Z,3.05
2023-04-16T17:00:02.436Z,4.15
2023-04-16T17:02:29.495Z,1.30
2023-04-16T17:04:58.845Z,3.45
2023-04-16T17:07:25.701Z,1.35
2023-04-16T17:09:52.536Z,1.10
2023-04-16T17:12:19.289Z,2.15
2023-04-16T17:14:50.392Z,0.70
2023-04-16T17:17:17.137Z,2.90
2023-04-16T17:19:44.234Z,2.75
2023-04-16T17:22:11.141Z,0.80
2023-04-16T17:24:38.057Z,0.73
2023-04-16T17:27:04.824Z,1.38
2023-04-16T17:29:31.532Z,1.20
2023-04-16T17:31:58.308Z,0.75
2023-04-16T17:34:25.042Z,1.85
2023-04-16T17:36:51.855Z,0.80
2023-04-16T17:39:19.111Z,1.48
2023-04-16T17:41:46.131Z,3.03
2023-04-16T17:44:13.181Z,1.13
2023-04-16T17:46:40.385Z,0.90
2023-04-16T17:49:07.211Z,1.38
2023-04-16T17:51:33.953Z,1.02
2023-04-16T17:54:00.813Z,1.02
2023-04-16T17:56:27.702Z,1.65
2023-04-16T17:58:54.474Z,1.13
2023-04-16T18:01:21.295Z,0.82
2023-04-16T18:03:51.567Z,0.95
2023-04-16T18:06:22.289Z,1.27
2023-04-16T18:08:48.896Z,2.38
2023-04-16T18:11:15.787Z,1.70
2023-04-16T18:13:43.705Z,0.93
2023-04-16T18:16:17.972Z,1.30
2023-04-16T18:18:44.874Z,1.52
2023-04-16T18:21:11.816Z,1.70
2023-04-16T18:23:38.572Z,2.08
2023-04-16T18:26:07.639Z,3.22
2023-04-16T18:28:35.985Z,2.03
2023-04-16T18:31:05.547Z,1.52
2023-04-16T18:36:02.946Z,1.60
2023-04-16T18:38:31.224Z,3.63
2023-04-16T18:40:58.566Z,1.02
2023-04-16T18:43:25.352Z,2.22
2023-04-16T18:45:52.106Z,2.20
2023-04-16T18:48:18.785Z,1.65
2023-04-16T18:50:45.792Z,1.50
2023-04-16T18:53:12.655Z,1.40
2023-04-16T18:55:39.380Z,2.05
2023-04-16T18:58:06.232Z,1.25
2023-04-16T19:00:33.040Z,1.20
2023-04-16T19:02:59.759Z,3.15
2023-04-16T19:05:26.670Z,7.93
2023-04-16T19:07:54.269Z,2.25
2023-04-16T19:10:20.960Z,2.03
2023-04-16T19:12:47.620Z,1.23
2023-04-16T19:15:14.826Z,3.85
2023-04-16T19:17:41.705Z,2.20
2023-04-16T19:20:11.180Z,3.15
2023-04-16T19:22:38.363Z,1.75
2023-04-16T19:25:06.118Z,1.90
2023-04-16T19:27:33.527Z,2.55
2023-04-16T19:30:00.270Z,4.82
2023-04-16T19:32:26.989Z,1.52
2023-04-16T19:34:53.802Z,2.17
2023-04-16T19:37:20.435Z,2.03
2023-04-16T19:39:47.136Z,2.15
2023-04-16T19:42:13.740Z,1.90
2023-04-16T19:44:40.501Z,2.67
2023-04-16T19:47:07.193Z,2.03
2023-04-16T19:49:34.616Z,3.22
2023-04-16T19:52:01.342Z,2.45
2023-04-16T19:54:28.944Z,2.03
2023-04-16T19:56:57.108Z,1.88
2023-04-16T19:59:24.973Z,1.83
2023-04-16T20:01:51.644Z,1.80
2023-04-16T20:04:18.514Z,2.03
2023-04-16T20:06:45.328Z,3.83
2023-04-16T20:09:12.215Z,5.05
2023-04-16T20:11:39.114Z,2.30
2023-04-16T20:14:05.869Z,1.52
2023-04-16T20:16:33.495Z,2.35
2023-04-16T20:19:03.282Z,2.97
2023-04-16T20:21:32.340Z,3.78
2023-04-16T20:23:59.669Z,2.03
2023-04-16T20:26:28.298Z,2.90
2023-04-16T20:28:55.082Z,1.92
2023-04-16T20:31:21.720Z,2.35
2023-04-16T20:33:48.540Z,2.20
2023-04-16T20:36:15.425Z,2.92
2023-04-16T20:38:43.546Z,3.35
2023-04-16T20:41:10.586Z,3.05
2023-04-16T20:43:40.830Z,2.45
2023-04-16T20:46:08.901Z,3.28
2023-04-16T20:48:35.718Z,2.80
2023-04-16T20:51:03.683Z,3.42
2023-04-16T20:53:31.471Z,2.13
2023-04-16T20:55:59.978Z,2.30
2023-04-16T20:58:30.230Z,1.98
2023-04-16T21:00:57.399Z,5.35
2023-04-16T21:03:24.594Z,2.65
2023-04-16T21:05:53.638Z,2.40
2023-04-16T21:08:21.912Z,1.83
2023-04-16T21:10:48.729Z,2.53
2023-04-16T21:13:15.628Z,2.90
2023-04-16T21:15:43.299Z,1.95
2023-04-16T21:18:10.306Z,3.88
2023-04-16T21:20:46.336Z,2.70
2023-04-16T21:23:13.005Z,3.22
2023-04-16T21:25:39.759Z,2.40
2023-04-16T21:28:06.693Z,2.90
2023-04-16T21:30:33.490Z,4.15
2023-04-16T21:33:00.280Z,2.28
2023-04-16T21:35:27.342Z,4.90
2023-04-16T21:37:54.118Z,2.70
2023-04-16T21:40:20.818Z,2.30
2023-04-16T21:42:47.566Z,3.08
2023-04-16T21:45:14.529Z,5.03
2023-04-16T21:47:41.285Z,1.95
2023-04-16T21:50:08.532Z,3.85
2023-04-16T21:52:40.092Z,2.50
2023-04-16T21:55:09.056Z,2.10
2023-04-16T21:57:35.654Z,2.67
2023-04-16T22:00:02.932Z,2.75
2023-04-16T22:02:29.963Z,2.45
2023-04-16T22:04:56.701Z,2.55
2023-04-16T22:07:23.330Z,1.70
2023-04-16T22:09:50.000Z,1.80
2023-04-16T22:12:16.773Z,2.45
2023-04-16T22:14:52.301Z,2.70
2023-04-16T22:17:27.690Z,4.03
2023-04-16T22:19:54.646Z,1.83
2023-04-16T22:22:21.983Z,1.50
2023-04-16T22:24:48.977Z,2.85
2023-04-16T22:27:15.797Z,2.40
2023-04-16T22:29:42.662Z,2.25
2023-04-16T22:32:09.518Z,2.30
2023-04-16T22:34:36.455Z,2.80
2023-04-16T22:37:03.295Z,2.92
2023-04-16T22:39:30.726Z,2.08
2023-04-16T22:41:57.514Z,3.10
2023-04-16T22:44:24.256Z,2.25
2023-04-16T22:46:51.173Z,1.90
2023-04-16T22:49:17.860Z,2.30
2023-04-16T22:51:44.802Z,1.80
2023-04-16T22:54:13.263Z,2.53
2023-04-16T22:56:40.889Z,1.63
2023-04-16T22:59:07.824Z,1.73
2023-04-16T23:01:35.199Z,2.10
2023-04-16T23:04:02.300Z,1.95
2023-04-16T23:06:29.032Z,2.90
2023-04-16T23:08:55.893Z,3.17
2023-04-16T23:11:22.830Z,2.28
2023-04-16T23:13:49.559Z,1.95
2023-04-16T23:16:16.385Z,1.25
2023-04-16T23:18:43.416Z,1.50
2023-04-16T23:21:10.127Z,1.40
2023-04-16T23:23:37.353Z,0.93
2023-04-16T23:26:04.366Z,1.38
2023-04-16T23:28:31.108Z,1.42
2023-04-16T23:30:57.874Z,1.42
2023-04-16T23:33:24.679Z,1.40
2023-04-16T23:35:51.442Z,1.67
2023-04-16T23:38:18.171Z,1.42
2023-04-16T23:40:44.821Z,1.20
2023-04-16T23:43:11.568Z,1.20
2023-04-16T23:45:38.269Z,1.77
2023-04-16T23:48:05.185Z,1.60
2023-04-16T23:50:32.626Z,1.50
2023-04-16T23:52:59.286Z,1.00
2023-04-16T23:55:25.929Z,1.13
2023-04-16T23:57:52.615Z,1.05
